createdAt,value
2022-10-10T00:00:49.208Z,11.63
2022-10-10T00:03:17.500Z,14.65
2022-10-10T00:05:44.483Z,8.55
2022-10-10T00:08:11.325Z,7.38
2022-10-10T00:10:38.480Z,10.10
2022-10-10T00:13:06.487Z,11.70
2022-10-10T00:15:33.747Z,9.20
2022-10-10T00:18:00.585Z,7.40
2022-10-10T00:20:27.549Z,6.85
2022-10-10T00:22:54.519Z,14.23
2022-10-10T00:25:21.815Z,11.85
2022-10-10T00:27:48.661Z,9.38
2022-10-10T00:30:15.534Z,8.55
2022-10-10T00:32:42.254Z,7.68
2022-10-10T00:35:09.444Z,18.40
2022-10-10T00:37:36.294Z,11.40
2022-10-10T00:40:04.907Z,12.93
2022-10-10T00:42:31.827Z,9.55
2022-10-10T00:45:26.472Z,14.95
2022-10-10T00:48:00.537Z,10.13
2022-10-10T00:50:28.699Z,6.93
2022-10-10T00:52:56.508Z,6.07
2022-10-10T00:55:23.280Z,9.90
2022-10-10T00:57:51.587Z,11.93
2022-10-10T01:00:19.059Z,9.95
2022-10-10T01:02:45.935Z,11.52
2022-10-10T01:05:12.932Z,10.68
2022-10-10T01:07:40.644Z,13.18
2022-10-10T01:10:15.174Z,13.80
2022-10-10T01:12:57.235Z,7.65
2022-10-10T01:15:42.789Z,11.02
2022-10-10T01:23:34.050Z,12.25
2022-10-10T01:26:22.879Z,13.15
2022-10-10T01:29:16.736Z,16.63
2022-10-10T01:31:46.945Z,12.20
2022-10-10T01:34:13.811Z,17.95
2022-10-10T01:36:58.756Z,9.50
2022-10-10T01:39:52.555Z,17.15
2022-10-10T01:42:41.976Z,10.13
2022-10-10T01:45:09.982Z,8.82
2022-10-10T01:47:36.822Z,9.45
2022-10-10T01:50:08.420Z,15.45
2022-10-10T01:53:20.643Z,21.33
2022-10-10T01:56:05.586Z,12.77
2022-10-10T01:58:54.162Z,4.05
2022-10-10T02:01:41.198Z,8.65
2022-10-10T02:04:32.639Z,14.52
2022-10-10T02:07:10.106Z,8.05
2022-10-10T02:09:40.140Z,13.13
2022-10-10T02:12:12.443Z,10.48
2022-10-10T02:14:46.315Z,21.83
2022-10-10T02:17:15.918Z,9.10
2022-10-10T02:19:49.063Z,11.15
2022-10-10T02:22:16.787Z,11.80
2022-10-10T02:24:43.714Z,13.82
2022-10-10T02:27:21.818Z,10.30
2022-10-10T02:29:51.223Z,10.57
2022-10-10T02:32:24.006Z,14.57
2022-10-10T02:34:55.910Z,13.23
2022-10-10T02:37:24.959Z,15.27
2022-10-10T02:39:56.739Z,12.70
2022-10-10T02:42:24.598Z,12.18
2022-10-10T02:44:52.397Z,12.77
2022-10-10T02:47:19.154Z,18.80
2022-10-10T02:49:46.041Z,6.75
2022-10-10T02:52:15.059Z,16.50
2022-10-10T02:54:41.911Z,18.73
2022-10-10T02:57:08.929Z,19.88
2022-10-10T02:59:35.780Z,9.68
2022-10-10T03:02:02.478Z,13.88
2022-10-10T03:04:29.258Z,14.23
2022-10-10T03:06:56.319Z,20.00
2022-10-10T03:09:23.143Z,11.70
2022-10-10T03:11:50.031Z,9.18
2022-10-10T03:14:16.902Z,14.23
2022-10-10T03:16:43.759Z,12.10
2022-10-10T03:19:10.582Z,13.80
2022-10-10T03:21:37.425Z,19.05
2022-10-10T03:24:05.559Z,20.98
2022-10-10T03:26:32.989Z,15.18
2022-10-10T03:29:02.170Z,16.05
2022-10-10T03:31:29.069Z,15.20
2022-10-10T03:33:56.003Z,11.23
2022-10-10T03:36:23.408Z,17.60
2022-10-10T03:38:50.482Z,13.90
2022-10-10T03:41:17.382Z,28.48
2022-10-10T03:43:44.306Z,17.00
2022-10-10T03:46:15.790Z,14.63
2022-10-10T03:48:43.763Z,15.88
2022-10-10T03:51:10.846Z,21.75
2022-10-10T03:53:37.963Z,14.70
2022-10-10T03:56:05.418Z,17.85
2022-10-10T03:58:32.276Z,14.13
2022-10-10T04:01:01.231Z,16.80
2022-10-10T04:03:29.105Z,16.33
2022-10-10T04:05:55.970Z,13.95
2022-10-10T04:08:23.544Z,12.00
2022-10-10T04:10:52.035Z,14.13
2022-10-10T04:13:20.274Z,18.08
2022-10-10T04:15:50.385Z,8.13
2022-10-10T04:18:17.484Z,14.07
2022-10-10T04:20:44.338Z,15.07
2022-10-10T04:23:11.047Z,11.63
2022-10-10T04:25:37.743Z,13.32
2022-10-10T04:28:04.643Z,20.30
2022-10-10T04:30:33.704Z,19.02
2022-10-10T04:33:00.809Z,18.73
2022-10-10T04:35:27.649Z,29.98
2022-10-10T04:37:54.495Z,16.40
2022-10-10T04:40:26.233Z,14.55
2022-10-10T04:42:54.664Z,15.45
2022-10-10T04:45:21.932Z,15.30
2022-10-10T04:47:48.597Z,15.48
2022-10-10T04:50:15.526Z,19.85
2022-10-10T04:52:42.258Z,14.63
2022-10-10T04:55:09.215Z,19.80
2022-10-10T04:57:36.134Z,14.52
2022-10-10T05:00:05.036Z,17.42
2022-10-10T05:02:32.658Z,21.38
2022-10-10T05:04:59.519Z,17.35
2022-10-10T05:07:26.339Z,12.95
2022-10-10T05:09:53.046Z,18.10
2022-10-10T05:12:19.983Z,16.80
2022-10-10T05:14:48.321Z,13.88
2022-10-10T05:17:15.519Z,11.55
2022-10-10T05:19:42.760Z,19.25
2022-10-10T05:22:09.763Z,12.57
2022-10-10T05:24:36.412Z,7.95
2022-10-10T05:27:03.413Z,14.68
2022-10-10T05:29:30.104Z,24.50
2022-10-10T05:31:57.008Z,16.20
2022-10-10T05:34:23.689Z,9.70
2022-10-10T05:36:50.763Z,12.15
2022-10-10T05:39:17.434Z,15.38
2022-10-10T05:41:44.329Z,12.70
2022-10-10T05:44:14.877Z,16.25
2022-10-10T05:46:41.689Z,13.32
2022-10-10T05:49:08.539Z,11.90
2022-10-10T05:51:35.391Z,21.38
2022-10-10T05:54:02.686Z,20.23
2022-10-10T05:56:29.515Z,15.35
2022-10-10T05:58:56.175Z,11.02
2022-10-10T06:01:22.996Z,10.73
2022-10-10T06:03:52.987Z,8.02
2022-10-10T06:06:19.864Z,11.57
2022-10-10T06:08:49.304Z,22.25
2022-10-10T06:11:17.605Z,11.73
2022-10-10T06:13:55.357Z,12.13
2022-10-10T06:16:24.350Z,18.33
2022-10-10T06:18:51.866Z,9.98
2022-10-10T06:21:21.144Z,14.55
2022-10-10T06:23:50.156Z,14.85
2022-10-10T06:26:17.478Z,6.75
2022-10-10T06:28:44.354Z,7.95
2022-10-10T06:31:13.447Z,14.30
2022-10-10T06:33:50.160Z,7.82
2022-10-10T06:37:27.409Z,18.70
2022-10-10T06:40:09.660Z,12.85
2022-10-10T06:54:07.068Z,15.88
2022-10-10T06:56:33.794Z,5.90
2022-10-10T06:59:00.602Z,6.43
2022-10-10T07:01:27.470Z,6.00
2022-10-10T07:03:54.407Z,9.82
2022-10-10T07:06:21.466Z,7.57
2022-10-10T07:08:48.456Z,6.20
2022-10-10T07:11:15.538Z,10.90
2022-10-10T07:13:42.374Z,9.75
2022-10-10T07:16:11.057Z,9.13
2022-10-10T07:18:38.615Z,6.40
2022-10-10T07:21:05.879Z,5.97
2022-10-10T07:23:33.633Z,5.85
2022-10-10T07:26:13.031Z,8.35
2022-10-10T07:28:40.206Z,8.27
2022-10-10T07:31:11.308Z,6.30
2022-10-10T07:33:49.849Z,13.50
2022-10-10T07:36:16.979Z,6.18
2022-10-10T07:38:44.741Z,7.65
2022-10-10T07:41:14.637Z,7.03
2022-10-10T07:43:41.840Z,6.22
2022-10-10T07:46:19.233Z,6.70
2022-10-10T07:48:46.446Z,6.22
2022-10-10T07:51:13.152Z,7.70
2022-10-10T07:53:41.031Z,6.82
2022-10-10T07:56:09.638Z,6.25
2022-10-10T07:58:37.091Z,10.15
2022-10-10T08:01:11.896Z,7.25
2022-10-10T08:03:39.600Z,5.72
2022-10-10T08:06:08.568Z,7.78
2022-10-10T08:08:42.733Z,6.97
2022-10-10T08:11:15.678Z,7.95
2022-10-10T08:13:42.541Z,6.88
2022-10-10T08:16:09.369Z,6.50
2022-10-10T08:18:36.303Z,14.52
2022-10-10T08:21:08.785Z,8.52
2022-10-10T08:23:36.195Z,4.88
2022-10-10T08:26:07.279Z,8.57
2022-10-10T08:28:35.019Z,6.00
2022-10-10T08:31:10.286Z,7.25
2022-10-10T08:36:09.657Z,4.55
2022-10-10T08:38:37.064Z,9.00
2022-10-10T08:41:16.974Z,3.72
2022-10-10T08:43:56.563Z,12.40
2022-10-10T08:46:52.523Z,17.05
2022-10-10T08:49:37.707Z,7.50
2022-10-10T08:52:13.786Z,3.40
2022-10-10T08:54:42.958Z,5.72
2022-10-10T08:57:31.823Z,8.18
2022-10-10T09:00:11.270Z,9.98
2022-10-10T09:02:53.967Z,10.52
2022-10-10T09:05:33.764Z,6.93
2022-10-10T09:08:03.486Z,7.15
2022-10-10T09:10:42.158Z,7.93
2022-10-10T09:13:38.732Z,9.38
2022-10-10T09:16:24.059Z,5.95
2022-10-10T09:18:59.693Z,6.82
2022-10-10T09:21:31.694Z,5.25
2022-10-10T09:24:13.702Z,9.23
2022-10-10T09:26:47.569Z,7.65
2022-10-10T09:29:32.922Z,6.85
2022-10-10T09:32:13.135Z,4.82
2022-10-10T09:34:45.464Z,9.55
2022-10-10T09:37:35.650Z,7.82
2022-10-10T09:40:13.131Z,6.05
2022-10-10T09:42:40.495Z,5.45
2022-10-10T09:45:15.108Z,5.07
2022-10-10T09:47:41.774Z,6.78
2022-10-10T09:50:14.080Z,8.55
2022-10-10T09:52:41.563Z,5.72
2022-10-10T09:55:20.251Z,7.57
2022-10-10T09:57:48.286Z,6.85
2022-10-10T10:00:21.024Z,8.13
2022-10-10T10:03:14.119Z,6.85
2022-10-10T10:05:44.998Z,5.40
2022-10-10T10:08:30.495Z,7.72
2022-10-10T10:10:58.698Z,11.02
2022-10-10T10:13:37.195Z,7.85
2022-10-10T10:16:10.494Z,11.25
2022-10-10T10:18:45.816Z,6.63
2022-10-10T10:21:21.593Z,5.10
2022-10-10T10:23:51.322Z,9.88
2022-10-10T10:26:41.123Z,9.52
2022-10-10T10:29:28.184Z,4.57
2022-10-10T10:32:18.639Z,5.38
2022-10-10T10:35:00.749Z,6.10
2022-10-10T10:37:40.583Z,8.73
2022-10-10T10:40:29.315Z,5.90
2022-10-10T10:43:24.196Z,4.03
2022-10-10T10:46:09.398Z,7.40
2022-10-10T10:48:43.499Z,5.45
2022-10-10T10:51:13.264Z,5.23
2022-10-10T10:53:57.373Z,7.45
2022-10-10T11:00:25.852Z,11.02
2022-10-10T11:02:54.196Z,10.25
2022-10-10T11:05:41.839Z,8.80
2022-10-10T11:08:36.307Z,6.15
2022-10-10T11:11:24.590Z,9.15
2022-10-10T11:14:29.923Z,6.50
2022-10-10T11:17:20.200Z,7.80
2022-10-10T11:19:57.071Z,8.57
2022-10-10T11:22:40.287Z,10.98
2022-10-10T11:25:26.239Z,4.18
2022-10-10T11:28:10.078Z,4.65
2022-10-10T11:30:44.845Z,7.75
2022-10-10T11:33:18.918Z,7.55
2022-10-10T11:35:45.834Z,6.97
2022-10-10T11:38:37.901Z,5.20
2022-10-10T11:41:13.927Z,6.32
2022-10-10T11:43:45.677Z,4.65
2022-10-10T11:46:35.636Z,3.45
2022-10-10T11:49:17.354Z,4.25
2022-10-10T11:52:09.587Z,6.70
2022-10-10T11:55:16.079Z,4.90
2022-10-10T11:57:58.436Z,6.07
2022-10-10T12:00:28.787Z,8.82
2022-10-10T12:02:57.231Z,5.43
2022-10-10T12:05:27.704Z,2.63
2022-10-10T12:07:54.542Z,4.82
2022-10-10T12:10:31.680Z,9.05
2022-10-10T12:13:06.318Z,4.30
2022-10-10T12:15:41.299Z,6.97
2022-10-10T12:18:41.973Z,5.18
2022-10-10T12:21:12.403Z,8.25
2022-10-10T12:23:41.342Z,4.28
2022-10-10T12:26:14.032Z,5.47
2022-10-10T12:28:59.640Z,10.10
2022-10-10T12:31:37.523Z,8.15
2022-10-10T12:34:10.442Z,6.10
2022-10-10T12:36:40.268Z,6.07
2022-10-10T12:39:08.307Z,9.57
2022-10-10T12:41:50.427Z,11.15
2022-10-10T12:44:41.642Z,4.88
2022-10-10T12:47:14.184Z,4.00
2022-10-10T12:50:00.594Z,10.75
2022-10-10T12:52:32.845Z,6.55
2022-10-10T12:55:40.856Z,6.95
2022-10-10T12:58:26.166Z,10.20
2022-10-10T13:00:56.841Z,12.52
2022-10-10T13:03:26.478Z,7.57
2022-10-10T13:05:54.570Z,6.93
2022-10-10T13:08:27.335Z,8.93
2022-10-10T13:11:14.658Z,6.65
2022-10-10T13:13:49.647Z,9.00
2022-10-10T13:16:21.962Z,7.65
2022-10-10T13:18:51.599Z,7.90
2022-10-10T13:21:22.324Z,9.30
2022-10-10T13:26:43.646Z,5.95
2022-10-10T13:29:31.765Z,9.55
2022-10-10T13:32:13.492Z,9.73
2022-10-10T13:34:45.643Z,7.15
2022-10-10T13:37:16.742Z,9.55
2022-10-10T13:39:44.671Z,5.63
2022-10-10T13:42:39.780Z,10.75
2022-10-10T13:45:30.332Z,10.40
2022-10-10T13:48:00.414Z,7.78
2022-10-10T13:50:27.083Z,10.40
2022-10-10T13:53:21.881Z,16.02
2022-10-10T13:55:48.711Z,5.25
2022-10-10T13:58:16.802Z,13.85
2022-10-10T14:00:43.871Z,7.20
2022-10-10T14:03:20.249Z,8.40
2022-10-10T14:05:47.114Z,7.03
2022-10-10T14:08:34.255Z,3.25
2022-10-10T14:11:01.407Z,5.30
2022-10-10T14:13:30.401Z,10.77
2022-10-10T14:16:33.041Z,5.85
2022-10-10T14:19:02.785Z,9.90
2022-10-10T14:21:29.734Z,5.28
2022-10-10T14:23:56.466Z,10.98
2022-10-10T14:26:23.820Z,5.47
2022-10-10T14:28:50.685Z,10.68
2022-10-10T14:31:17.983Z,10.20
2022-10-10T14:33:44.807Z,8.68
2022-10-10T14:36:13.081Z,12.70
2022-10-10T14:38:39.991Z,8.88
2022-10-10T14:41:07.545Z,7.40
2022-10-10T14:43:34.515Z,5.00
2022-10-10T14:46:04.668Z,8.70
2022-10-10T14:48:31.333Z,15.73
2022-10-10T14:50:58.214Z,7.32
2022-10-10T14:53:25.100Z,8.90
2022-10-10T14:55:56.081Z,6.85
2022-10-10T14:58:23.579Z,10.02
2022-10-10T15:00:52.434Z,7.72
2022-10-10T15:03:19.726Z,9.35
2022-10-10T15:05:48.551Z,5.90
2022-10-10T15:08:20.699Z,5.65
2022-10-10T15:10:48.269Z,5.07
2022-10-10T15:13:25.095Z,10.93
2022-10-10T15:15:55.000Z,3.85
2022-10-10T15:18:52.673Z,8.10
2022-10-10T15:21:12.228Z,9.20
2022-10-10T15:23:39.603Z,9.38
2022-10-10T15:26:06.887Z,14.77
2022-10-10T15:28:34.597Z,11.25
2022-10-10T15:31:02.194Z,8.63
2022-10-10T15:33:29.041Z,9.50
2022-10-10T15:36:10.435Z,7.72
2022-10-10T15:38:40.111Z,12.43
2022-10-10T15:41:09.547Z,11.05
2022-10-10T15:43:47.352Z,10.00
2022-10-10T15:46:14.238Z,7.53
2022-10-10T15:48:41.018Z,8.55
2022-10-10T15:51:09.097Z,11.27
2022-10-10T15:53:36.039Z,7.90
2022-10-10T15:56:10.009Z,10.75
2022-10-10T15:58:39.232Z,8.47
2022-10-10T16:01:14.338Z,16.55
2022-10-10T16:03:41.892Z,8.32
2022-10-10T16:06:09.652Z,8.65
2022-10-10T16:08:37.583Z,13.80
2022-10-10T16:11:09.626Z,12.77
2022-10-10T16:13:38.071Z,14.40
2022-10-10T16:16:07.423Z,9.70
2022-10-10T16:18:39.986Z,8.32
2022-10-10T16:21:11.752Z,7.20
2022-10-10T16:23:39.221Z,11.95
2022-10-10T16:26:09.119Z,12.02
2022-10-10T16:28:36.070Z,8.23
2022-10-10T16:31:08.379Z,10.98
2022-10-10T16:33:36.855Z,11.85
2022-10-10T16:36:14.903Z,8.23
2022-10-10T16:38:42.137Z,7.75
2022-10-10T16:41:29.156Z,8.90
2022-10-10T16:44:01.936Z,13.68
2022-10-10T16:46:29.087Z,8.30
2022-10-10T16:48:59.772Z,11.43
2022-10-10T16:51:29.904Z,9.57
2022-10-10T16:54:00.883Z,12.05
2022-10-10T16:56:28.120Z,8.70
2022-10-10T16:58:57.943Z,11.38
2022-10-10T17:01:27.787Z,6.80
2022-10-10T17:03:56.935Z,19.35
2022-10-10T17:06:23.835Z,8.90
2022-10-10T17:08:53.226Z,12.48
2022-10-10T17:11:22.489Z,10.23
2022-10-10T17:13:50.451Z,15.00
2022-10-10T17:19:17.084Z,14.27
2022-10-10T17:21:43.986Z,10.35
2022-10-10T17:24:10.734Z,16.98
2022-10-10T17:26:37.643Z,11.82
2022-10-10T17:29:04.869Z,8.70
2022-10-10T17:31:31.778Z,7.70
2022-10-10T17:33:58.777Z,8.30
2022-10-10T17:36:27.682Z,12.07
2022-10-10T17:38:56.278Z,8.43
2022-10-10T17:41:25.788Z,7.90
2022-10-10T17:43:53.010Z,8.57
2022-10-10T17:46:35.348Z,9.52
2022-10-10T17:49:04.856Z,11.90
2022-10-10T17:51:32.022Z,15.38
2022-10-10T17:54:00.719Z,11.93
2022-10-10T17:56:28.964Z,9.30
2022-10-10T17:58:56.324Z,7.93
2022-10-10T18:01:23.399Z,9.80
2022-10-10T18:03:50.578Z,6.20
2022-10-10T18:06:20.829Z,19.75
2022-10-10T18:08:49.346Z,10.73
2022-10-10T18:11:21.527Z,8.63
2022-10-10T18:13:48.567Z,12.98
2022-10-10T18:16:17.907Z,9.10
2022-10-10T18:18:51.049Z,8.32
2022-10-10T18:21:22.903Z,9.27
2022-10-10T18:23:50.947Z,9.88
2022-10-10T18:26:21.084Z,9.35
2022-10-10T18:28:49.212Z,9.20
2022-10-10T18:31:33.279Z,10.77
2022-10-10T18:34:00.885Z,13.02
2022-10-10T18:36:30.048Z,9.13
2022-10-10T18:39:01.580Z,11.82
2022-10-10T18:41:34.233Z,9.75
2022-10-10T18:44:03.590Z,10.40
2022-10-10T18:46:30.767Z,17.23
2022-10-10T18:48:57.715Z,9.15
2022-10-10T18:51:26.591Z,9.15
2022-10-10T18:53:58.670Z,9.32
2022-10-10T18:56:25.521Z,9.98
2022-10-10T18:58:56.157Z,13.15
2022-10-10T19:01:25.604Z,10.40
2022-10-10T19:03:53.705Z,9.43
2022-10-10T19:06:22.866Z,12.07
2022-10-10T19:08:51.896Z,9.40
2022-10-10T19:11:25.163Z,11.48
2022-10-10T19:13:52.622Z,11.30
2022-10-10T19:16:20.625Z,11.30
2022-10-10T19:18:47.921Z,7.25
2022-10-10T19:21:16.172Z,9.52
2022-10-10T19:23:43.785Z,13.02
2022-10-10T19:26:16.840Z,12.05
2022-10-10T19:28:44.165Z,18.23
2022-10-10T19:31:16.234Z,12.68
2022-10-10T19:33:44.389Z,9.40
2022-10-10T19:36:12.815Z,21.02
2022-10-10T19:38:41.870Z,18.25
2022-10-10T19:41:12.998Z,13.38
2022-10-10T19:43:44.746Z,13.57
2022-10-10T19:46:14.539Z,16.85
2022-10-10T19:48:41.919Z,17.58
2022-10-10T19:51:11.657Z,21.30
2022-10-10T19:53:39.535Z,15.93
2022-10-10T19:56:10.267Z,13.50
2022-10-10T19:58:37.450Z,16.33
2022-10-10T20:01:09.507Z,21.88
2022-10-10T20:03:36.699Z,18.42
2022-10-10T20:06:04.663Z,16.88
2022-10-10T20:08:32.139Z,18.90
2022-10-10T20:10:59.536Z,18.33
2022-10-10T20:13:26.670Z,13.10
2022-10-10T20:15:53.594Z,17.27
2022-10-10T20:18:23.109Z,25.75
2022-10-10T20:20:52.347Z,15.75
2022-10-10T20:23:21.764Z,14.35
2022-10-10T20:25:48.780Z,20.17
2022-10-10T20:28:18.006Z,18.00
2022-10-10T20:30:48.581Z,18.33
2022-10-10T20:33:20.508Z,17.15
2022-10-10T20:35:51.117Z,21.92
2022-10-10T20:38:20.535Z,19.17
2022-10-10T20:40:47.370Z,21.10
2022-10-10T20:43:15.341Z,17.90
2022-10-10T20:45:42.164Z,18.30
2022-10-10T20:48:10.027Z,20.63
2022-10-10T20:50:38.155Z,21.45
2022-10-10T20:53:06.690Z,21.10
2022-10-10T20:55:33.932Z,24.38
2022-10-10T20:58:00.764Z,15.27
2022-10-10T21:00:27.703Z,26.98
2022-10-10T21:02:56.220Z,24.95
2022-10-10T21:05:23.221Z,15.27
2022-10-10T21:07:50.024Z,21.38
2022-10-10T21:10:17.076Z,16.92
2022-10-10T21:12:44.292Z,27.83
2022-10-10T21:15:11.212Z,24.05
2022-10-10T21:17:38.275Z,19.35
2022-10-10T21:20:05.751Z,22.42
2022-10-10T21:22:32.850Z,18.92
2022-10-10T21:24:59.614Z,25.35
2022-10-10T21:27:26.402Z,20.95
2022-10-10T21:29:53.215Z,18.95
2022-10-10T21:32:20.028Z,26.58
2022-10-10T21:34:46.851Z,20.33
2022-10-10T21:37:13.575Z,18.17
2022-10-10T21:39:40.406Z,19.85
2022-10-10T21:42:07.331Z,18.85
2022-10-10T21:44:34.195Z,28.50
2022-10-10T21:47:00.911Z,20.15
2022-10-10T21:49:27.754Z,29.17
2022-10-10T21:51:54.402Z,24.23
2022-10-10T21:54:21.203Z,25.73
2022-10-10T21:56:47.975Z,20.08
2022-10-10T21:59:14.835Z,21.90
2022-10-10T22:01:42.821Z,23.27
2022-10-10T22:04:10.454Z,18.95
2022-10-10T22:06:38.369Z,22.20
2022-10-10T22:09:05.634Z,24.55
2022-10-10T22:11:34.452Z,15.82
2022-10-10T22:14:04.673Z,18.33
2022-10-10T22:16:32.746Z,19.63
2022-10-10T22:19:00.429Z,19.60
2022-10-10T22:21:30.873Z,15.13
2022-10-10T22:24:02.296Z,21.58
2022-10-10T22:26:30.309Z,17.08
2022-10-10T22:28:57.351Z,15.68
2022-10-10T22:31:24.275Z,21.95
2022-10-10T22:33:51.046Z,17.50
2022-10-10T22:36:17.750Z,20.60
2022-10-10T22:38:45.416Z,22.23
2022-10-10T22:41:13.463Z,22.20
2022-10-10T22:43:40.394Z,16.10
2022-10-10T22:46:08.180Z,20.98
2022-10-10T22:48:35.680Z,15.85
2022-10-10T22:51:05.948Z,17.15
2022-10-10T22:53:33.115Z,15.40
2022-10-10T22:56:00.007Z,17.75
2022-10-10T22:58:26.930Z,19.90
2022-10-10T23:00:53.631Z,12.63
2022-10-10T23:03:20.702Z,22.63
2022-10-10T23:05:47.627Z,21.67
2022-10-10T23:08:14.602Z,25.05
2022-10-10T23:10:41.504Z,16.67
2022-10-10T23:13:08.399Z,22.55
2022-10-10T23:15:35.099Z,21.85
2022-10-10T23:18:01.950Z,22.38
2022-10-10T23:20:28.915Z,20.77
2022-10-10T23:22:55.840Z,15.38
2022-10-10T23:25:22.538Z,20.23
2022-10-10T23:27:49.812Z,17.88
2022-10-10T23:30:17.397Z,22.90
2022-10-10T23:32:44.162Z,20.63
2022-10-10T23:35:11.661Z,16.15
2022-10-10T23:37:38.440Z,17.05
2022-10-10T23:40:05.775Z,14.10
2022-10-10T23:42:33.148Z,18.77
2022-10-10T23:45:00.054Z,19.60
2022-10-10T23:47:27.331Z,19.70
2022-10-10T23:49:54.219Z,19.17
2022-10-10T23:52:20.967Z,16.33
2022-10-10T23:54:47.836Z,24.40
2022-10-10T23:57:14.772Z,27.45
2022-10-10T23:59:41.739Z,19.60
